sensor_id;sensor_type;location;lat;lon;timestamp;P1;durP1;ratioP1;P2;durP2;ratioP2
56299;SDS011;42209;6.376;-10.782;2023-07-08T00:00:55;7.43;;;6.72;;
56299;SDS011;42209;6.376;-10.782;2023-07-08T00:03:24;6.82;;;6.22;;
56299;SDS011;42209;6.376;-10.782;2023-07-08T00:05:53;6.93;;;6.25;;
56299;SDS011;42209;6.376;-10.782;2023-07-08T00:08:24;6.93;;;6.38;;
56299;SDS011;42209;6.376;-10.782;2023-07-08T00:10:52;6.22;;;5.63;;
56299;SDS011;42209;6.376;-10.782;2023-07-08T00:13:21;5.68;;;5.20;;
56299;SDS011;42209;6.376;-10.782;2023-07-08T00:15:49;7.20;;;6.43;;
56299;SDS011;42209;6.376;-10.782;2023-07-08T00:18:18;7.13;;;6.20;;
56299;SDS011;42209;6.376;-10.782;2023-07-08T00:23:16;6.18;;;5.60;;
56299;SDS011;42209;6.376;-10.782;2023-07-08T00:25:45;6.38;;;5.78;;
56299;SDS011;42209;6.376;-10.782;2023-07-08T00:30:44;7.85;;;7.05;;
56299;SDS011;42209;6.376;-10.782;2023-07-08T00:33:15;6.40;;;5.65;;
56299;SDS011;42209;6.376;-10.782;2023-07-08T00:35:44;6.97;;;6.00;;
56299;SDS011;42209;6.376;-10.782;2023-07-08T00:38:17;5.85;;;5.07;;
56299;SDS011;42209;6.376;-10.782;2023-07-08T00:43:37;6.13;;;5.53;;
56299;SDS011;42209;6.376;-10.782;2023-07-08T00:51:43;6.03;;;5.43;;
56299;SDS011;42209;6.376;-10.782;2023-07-08T00:54:12;6.57;;;5.63;;
56299;SDS011;42209;6.376;-10.782;2023-07-08T00:56:43;5.75;;;5.25;;
56299;SDS011;42209;6.376;-10.782;2023-07-08T00:59:31;6.43;;;5.82;;
56299;SDS011;42209;6.376;-10.782;2023-07-08T01:02:07;6.47;;;5.93;;
56299;SDS011;42209;6.376;-10.782;2023-07-08T01:07:38;6.28;;;5.68;;
56299;SDS011;42209;6.376;-10.782;2023-07-08T01:10:12;6.38;;;5.82;;
56299;SDS011;42209;6.376;-10.782;2023-07-08T01:12:45;7.40;;;5.30;;
56299;SDS011;42209;6.376;-10.782;2023-07-08T01:15:18;6.00;;;5.40;;
56299;SDS011;42209;6.376;-10.782;2023-07-08T01:17:51;6.38;;;5.85;;
56299;SDS011;42209;6.376;-10.782;2023-07-08T01:20:22;7.60;;;6.28;;
56299;SDS011;42209;6.376;-10.782;2023-07-08T01:22:50;6.85;;;6.32;;
56299;SDS011;42209;6.376;-10.782;2023-07-08T01:25:19;7.20;;;6.50;;
56299;SDS011;42209;6.376;-10.782;2023-07-08T01:27:48;5.50;;;5.00;;
56299;SDS011;42209;6.376;-10.782;2023-07-08T01:30:21;5.90;;;5.40;;
56299;SDS011;42209;6.376;-10.782;2023-07-08T01:32:51;6.68;;;6.07;;
56299;SDS011;42209;6.376;-10.782;2023-07-08T01:35:23;6.03;;;5.55;;
56299;SDS011;42209;6.376;-10.782;2023-07-08T01:40:27;7.10;;;5.30;;
56299;SDS011;42209;6.376;-10.782;2023-07-08T01:43:04;6.07;;;5.47;;
56299;SDS011;42209;6.376;-10.782;2023-07-08T01:45:39;6.38;;;5.78;;
56299;SDS011;42209;6.376;-10.782;2023-07-08T01:48:11;5.43;;;4.93;;
56299;SDS011;42209;6.376;-10.782;2023-07-08T01:53:45;6.97;;;6.32;;
56299;SDS011;42209;6.376;-10.782;2023-07-08T01:56:14;5.95;;;5.45;;
56299;SDS011;42209;6.376;-10.782;2023-07-08T01:58:43;5.63;;;5.10;;
56299;SDS011;42209;6.376;-10.782;2023-07-08T02:03:40;5.82;;;5.22;;
56299;SDS011;42209;6.376;-10.782;2023-07-08T02:06:11;5.88;;;5.28;;
56299;SDS011;42209;6.376;-10.782;2023-07-08T02:11:08;6.30;;;5.40;;
56299;SDS011;42209;6.376;-10.782;2023-07-08T02:13:36;6.70;;;6.07;;
56299;SDS011;42209;6.376;-10.782;2023-07-08T02:16:06;5.85;;;5.25;;
56299;SDS011;42209;6.376;-10.782;2023-07-08T02:18:34;6.13;;;5.63;;
56299;SDS011;42209;6.376;-10.782;2023-07-08T02:23:32;6.32;;;5.72;;
56299;SDS011;42209;6.376;-10.782;2023-07-08T02:26:01;6.70;;;5.72;;
56299;SDS011;42209;6.376;-10.782;2023-07-08T02:28:30;5.40;;;4.90;;
56299;SDS011;42209;6.376;-10.782;2023-07-08T02:33:30;6.15;;;5.30;;
56299;SDS011;42209;6.376;-10.782;2023-07-08T02:35:59;6.07;;;5.57;;
56299;SDS011;42209;6.376;-10.782;2023-07-08T02:38:28;6.47;;;5.70;;
56299;SDS011;42209;6.376;-10.782;2023-07-08T02:40:57;5.80;;;5.28;;
56299;SDS011;42209;6.376;-10.782;2023-07-08T02:43:26;5.63;;;4.75;;
56299;SDS011;42209;6.376;-10.782;2023-07-08T02:45:54;5.55;;;5.03;;
56299;SDS011;42209;6.376;-10.782;2023-07-08T02:48:23;5.28;;;4.88;;
56299;SDS011;42209;6.376;-10.782;2023-07-08T02:53:26;6.30;;;5.70;;
56299;SDS011;42209;6.376;-10.782;2023-07-08T02:55:55;6.28;;;5.70;;
56299;SDS011;42209;6.376;-10.782;2023-07-08T02:58:23;5.57;;;5.00;;
56299;SDS011;42209;6.376;-10.782;2023-07-08T03:00:53;6.30;;;5.70;;
56299;SDS011;42209;6.376;-10.782;2023-07-08T03:03:22;5.15;;;4.65;;
56299;SDS011;42209;6.376;-10.782;2023-07-08T03:05:58;5.50;;;4.93;;
56299;SDS011;42209;6.376;-10.782;2023-07-08T03:08:30;6.10;;;5.60;;
56299;SDS011;42209;6.376;-10.782;2023-07-08T03:11:01;5.20;;;4.78;;
56299;SDS011;42209;6.376;-10.782;2023-07-08T03:13:32;5.05;;;4.53;;
56299;SDS011;42209;6.376;-10.782;2023-07-08T03:16:01;5.50;;;5.00;;
56299;SDS011;42209;6.376;-10.782;2023-07-08T03:18:30;5.45;;;4.95;;
56299;SDS011;42209;6.376;-10.782;2023-07-08T03:20:58;5.15;;;4.70;;
56299;SDS011;42209;6.376;-10.782;2023-07-08T03:23:27;6.38;;;5.88;;
56299;SDS011;42209;6.376;-10.782;2023-07-08T03:25:56;5.15;;;4.65;;
56299;SDS011;42209;6.376;-10.782;2023-07-08T03:28:24;5.88;;;5.47;;
56299;SDS011;42209;6.376;-10.782;2023-07-08T03:30:53;4.78;;;4.28;;
56299;SDS011;42209;6.376;-10.782;2023-07-08T03:33:22;4.95;;;4.35;;
56299;SDS011;42209;6.376;-10.782;2023-07-08T03:35:50;5.22;;;4.72;;
56299;SDS011;42209;6.376;-10.782;2023-07-08T03:38:18;4.72;;;4.32;;
56299;SDS011;42209;6.376;-10.782;2023-07-08T03:40:47;4.53;;;4.00;;
56299;SDS011;42209;6.376;-10.782;2023-07-08T03:43:16;4.63;;;4.20;;
56299;SDS011;42209;6.376;-10.782;2023-07-08T03:45:46;6.68;;;4.80;;
56299;SDS011;42209;6.376;-10.782;2023-07-08T03:48:16;5.43;;;4.93;;
56299;SDS011;42209;6.376;-10.782;2023-07-08T03:50:44;5.10;;;4.70;;
56299;SDS011;42209;6.376;-10.782;2023-07-08T03:55:41;5.70;;;5.07;;
56299;SDS011;42209;6.376;-10.782;2023-07-08T03:58:10;5.97;;;5.47;;
56299;SDS011;42209;6.376;-10.782;2023-07-08T04:00:38;5.97;;;5.43;;
56299;SDS011;42209;6.376;-10.782;2023-07-08T04:03:08;5.68;;;5.05;;
56299;SDS011;42209;6.376;-10.782;2023-07-08T04:05:39;6.97;;;4.80;;
56299;SDS011;42209;6.376;-10.782;2023-07-08T04:08:07;4.65;;;4.25;;
56299;SDS011;42209;6.376;-10.782;2023-07-08T04:10:35;5.15;;;4.65;;
56299;SDS011;42209;6.376;-10.782;2023-07-08T04:13:04;5.20;;;4.70;;
56299;SDS011;42209;6.376;-10.782;2023-07-08T04:15:32;5.25;;;4.55;;
56299;SDS011;42209;6.376;-10.782;2023-07-08T04:18:00;5.22;;;4.82;;
56299;SDS011;42209;6.376;-10.782;2023-07-08T04:20:29;5.40;;;4.90;;
56299;SDS011;42209;6.376;-10.782;2023-07-08T04:22:57;5.50;;;5.00;;
56299;SDS011;42209;6.376;-10.782;2023-07-08T04:25:26;6.45;;;5.18;;
56299;SDS011;42209;6.376;-10.782;2023-07-08T04:27:55;5.78;;;4.80;;
56299;SDS011;42209;6.376;-10.782;2023-07-08T04:35:21;5.05;;;4.32;;
56299;SDS011;42209;6.376;-10.782;2023-07-08T04:37:49;5.47;;;5.05;;
56299;SDS011;42209;6.376;-10.782;2023-07-08T04:40:19;4.93;;;4.53;;
56299;SDS011;42209;6.376;-10.782;2023-07-08T04:42:48;5.40;;;4.93;;
56299;SDS011;42209;6.376;-10.782;2023-07-08T04:45:17;6.45;;;5.53;;
56299;SDS011;42209;6.376;-10.782;2023-07-08T04:47:46;4.97;;;4.47;;
56299;SDS011;42209;6.376;-10.782;2023-07-08T04:50:15;5.65;;;5.13;;
56299;SDS011;42209;6.376;-10.782;2023-07-08T04:52:43;6.00;;;5.50;;
56299;SDS011;42209;6.376;-10.782;2023-07-08T04:55:12;6.20;;;5.53;;
56299;SDS011;42209;6.376;-10.782;2023-07-08T04:57:41;6.35;;;5.75;;
56299;SDS011;42209;6.376;-10.782;2023-07-08T05:00:15;6.25;;;5.28;;
56299;SDS011;42209;6.376;-10.782;2023-07-08T05:02:44;4.82;;;4.20;;
56299;SDS011;42209;6.376;-10.782;2023-07-08T05:05:13;4.95;;;4.45;;
56299;SDS011;42209;6.376;-10.782;2023-07-08T05:07:42;5.85;;;5.22;;
56299;SDS011;42209;6.376;-10.782;2023-07-08T05:10:10;7.15;;;5.65;;
56299;SDS011;42209;6.376;-10.782;2023-07-08T05:12:39;5.53;;;5.03;;
56299;SDS011;42209;6.376;-10.782;2023-07-08T05:15:07;5.38;;;4.88;;
56299;SDS011;42209;6.376;-10.782;2023-07-08T05:17:37;5.00;;;4.60;;
56299;SDS011;42209;6.376;-10.782;2023-07-08T05:20:07;6.95;;;6.25;;
56299;SDS011;42209;6.376;-10.782;2023-07-08T05:22:37;5.55;;;5.05;;
56299;SDS011;42209;6.376;-10.782;2023-07-08T05:25:06;5.63;;;5.13;;
56299;SDS011;42209;6.376;-10.782;2023-07-08T05:30:04;4.63;;;4.22;;
56299;SDS011;42209;6.376;-10.782;2023-07-08T05:32:33;5.22;;;4.75;;
56299;SDS011;42209;6.376;-10.782;2023-07-08T05:35:02;4.68;;;4.28;;
56299;SDS011;42209;6.376;-10.782;2023-07-08T05:37:30;5.43;;;4.95;;
56299;SDS011;42209;6.376;-10.782;2023-07-08T05:39:59;6.97;;;5.63;;
56299;SDS011;42209;6.376;-10.782;2023-07-08T05:42:27;5.72;;;5.22;;
56299;SDS011;42209;6.376;-10.782;2023-07-08T05:44:56;6.57;;;5.10;;
56299;SDS011;42209;6.376;-10.782;2023-07-08T05:49:53;5.35;;;4.85;;
56299;SDS011;42209;6.376;-10.782;2023-07-08T05:52:22;5.38;;;4.68;;
56299;SDS011;42209;6.376;-10.782;2023-07-08T05:54:50;5.40;;;4.15;;
56299;SDS011;42209;6.376;-10.782;2023-07-08T05:59:47;3.85;;;3.53;;
56299;SDS011;42209;6.376;-10.782;2023-07-08T06:02:16;5.30;;;4.88;;
56299;SDS011;42209;6.376;-10.782;2023-07-08T06:04:45;5.13;;;4.63;;
56299;SDS011;42209;6.376;-10.782;2023-07-08T06:07:14;5.28;;;4.78;;
56299;SDS011;42209;6.376;-10.782;2023-07-08T06:09:42;6.13;;;5.07;;
56299;SDS011;42209;6.376;-10.782;2023-07-08T06:14:39;5.50;;;5.00;;
56299;SDS011;42209;6.376;-10.782;2023-07-08T06:17:08;4.95;;;4.55;;
56299;SDS011;42209;6.376;-10.782;2023-07-08T06:19:37;5.22;;;4.72;;
56299;SDS011;42209;6.376;-10.782;2023-07-08T06:22:05;5.10;;;4.63;;
56299;SDS011;42209;6.376;-10.782;2023-07-08T06:24:54;5.32;;;4.38;;
56299;SDS011;42209;6.376;-10.782;2023-07-08T06:27:22;5.32;;;4.80;;
56299;SDS011;42209;6.376;-10.782;2023-07-08T06:29:51;5.32;;;4.82;;
56299;SDS011;42209;6.376;-10.782;2023-07-08T06:32:20;5.13;;;4.72;;
56299;SDS011;42209;6.376;-10.782;2023-07-08T06:34:49;5.15;;;4.72;;
56299;SDS011;42209;6.376;-10.782;2023-07-08T06:37:17;5.70;;;5.25;;
56299;SDS011;42209;6.376;-10.782;2023-07-08T06:39:46;6.07;;;4.65;;
56299;SDS011;42209;6.376;-10.782;2023-07-08T06:42:14;5.63;;;5.13;;
56299;SDS011;42209;6.376;-10.782;2023-07-08T06:44:52;5.00;;;4.60;;
56299;SDS011;42209;6.376;-10.782;2023-07-08T06:47:20;4.25;;;3.85;;
56299;SDS011;42209;6.376;-10.782;2023-07-08T06:49:49;5.88;;;4.22;;
56299;SDS011;42209;6.376;-10.782;2023-07-08T06:52:18;4.78;;;4.32;;
56299;SDS011;42209;6.376;-10.782;2023-07-08T06:54:46;4.50;;;4.10;;
56299;SDS011;42209;6.376;-10.782;2023-07-08T06:57:15;5.35;;;4.60;;
56299;SDS011;42209;6.376;-10.782;2023-07-08T06:59:43;4.82;;;4.43;;
56299;SDS011;42209;6.376;-10.782;2023-07-08T07:02:12;5.13;;;4.65;;
56299;SDS011;42209;6.376;-10.782;2023-07-08T07:04:40;5.90;;;5.35;;
56299;SDS011;42209;6.376;-10.782;2023-07-08T07:07:18;4.70;;;4.30;;
56299;SDS011;42209;6.376;-10.782;2023-07-08T07:09:46;5.53;;;5.03;;
56299;SDS011;42209;6.376;-10.782;2023-07-08T07:12:15;5.72;;;5.22;;
56299;SDS011;42209;6.376;-10.782;2023-07-08T07:14:45;6.03;;;4.72;;
56299;SDS011;42209;6.376;-10.782;2023-07-08T07:17:14;4.85;;;4.18;;
56299;SDS011;42209;6.376;-10.782;2023-07-08T07:19:42;4.50;;;4.10;;
56299;SDS011;42209;6.376;-10.782;2023-07-08T07:22:11;13.20;;;5.07;;
56299;SDS011;42209;6.376;-10.782;2023-07-08T07:24:39;5.50;;;5.00;;
56299;SDS011;42209;6.376;-10.782;2023-07-08T07:27:08;5.32;;;4.82;;
56299;SDS011;42209;6.376;-10.782;2023-07-08T07:29:48;6.28;;;5.20;;
56299;SDS011;42209;6.376;-10.782;2023-07-08T07:32:18;7.38;;;5.90;;
56299;SDS011;42209;6.376;-10.782;2023-07-08T07:34:50;7.55;;;6.57;;
56299;SDS011;42209;6.376;-10.782;2023-07-08T07:37:20;6.20;;;5.60;;
56299;SDS011;42209;6.376;-10.782;2023-07-08T07:39:49;6.72;;;5.82;;
56299;SDS011;42209;6.376;-10.782;2023-07-08T07:42:18;6.97;;;6.15;;
56299;SDS011;42209;6.376;-10.782;2023-07-08T07:44:47;7.22;;;5.72;;
56299;SDS011;42209;6.376;-10.782;2023-07-08T07:47:16;6.45;;;5.85;;
56299;SDS011;42209;6.376;-10.782;2023-07-08T07:49:44;6.10;;;5.50;;
56299;SDS011;42209;6.376;-10.782;2023-07-08T07:52:13;5.78;;;5.28;;
56299;SDS011;42209;6.376;-10.782;2023-07-08T07:54:41;6.07;;;5.53;;
56299;SDS011;42209;6.376;-10.782;2023-07-08T07:57:10;9.25;;;6.40;;
56299;SDS011;42209;6.376;-10.782;2023-07-08T07:59:38;7.10;;;6.07;;
56299;SDS011;42209;6.376;-10.782;2023-07-08T08:02:07;7.53;;;6.72;;
56299;SDS011;42209;6.376;-10.782;2023-07-08T08:04:36;7.70;;;6.75;;
56299;SDS011;42209;6.376;-10.782;2023-07-08T08:07:05;7.43;;;6.32;;
56299;SDS011;42209;6.376;-10.782;2023-07-08T08:09:33;6.97;;;6.38;;
56299;SDS011;42209;6.376;-10.782;2023-07-08T08:12:02;7.75;;;7.05;;
56299;SDS011;42209;6.376;-10.782;2023-07-08T08:14:33;8.23;;;6.82;;
56299;SDS011;42209;6.376;-10.782;2023-07-08T08:17:01;9.20;;;7.18;;
56299;SDS011;42209;6.376;-10.782;2023-07-08T08:22:59;8.23;;;6.10;;
56299;SDS011;42209;6.376;-10.782;2023-07-08T08:25:48;7.75;;;7.03;;
56299;SDS011;42209;6.376;-10.782;2023-07-08T08:28:24;7.80;;;7.00;;
56299;SDS011;42209;6.376;-10.782;2023-07-08T08:30:52;7.30;;;6.60;;
56299;SDS011;42209;6.376;-10.782;2023-07-08T08:33:21;8.68;;;7.68;;
56299;SDS011;42209;6.376;-10.782;2023-07-08T08:35:50;9.20;;;7.82;;
56299;SDS011;42209;6.376;-10.782;2023-07-08T08:38:18;8.70;;;7.72;;
56299;SDS011;42209;6.376;-10.782;2023-07-08T08:40:47;8.57;;;7.50;;
56299;SDS011;42209;6.376;-10.782;2023-07-08T08:51:32;10.73;;;9.60;;
56299;SDS011;42209;6.376;-10.782;2023-07-08T09:02:28;8.90;;;7.87;;
56299;SDS011;42209;6.376;-10.782;2023-07-08T09:05:05;8.48;;;7.50;;
56299;SDS011;42209;6.376;-10.782;2023-07-08T09:07:44;8.88;;;7.97;;
56299;SDS011;42209;6.376;-10.782;2023-07-08T09:10:45;9.32;;;8.20;;
56299;SDS011;42209;6.376;-10.782;2023-07-08T09:16:06;9.57;;;7.95;;
56299;SDS011;42209;6.376;-10.782;2023-07-08T09:18:43;8.10;;;7.25;;
56299;SDS011;42209;6.376;-10.782;2023-07-08T09:21:37;9.30;;;7.65;;
56299;SDS011;42209;6.376;-10.782;2023-07-08T09:27:10;10.55;;;7.88;;
56299;SDS011;42209;6.376;-10.782;2023-07-08T09:29:39;8.88;;;7.97;;
56299;SDS011;42209;6.376;-10.782;2023-07-08T09:32:14;8.85;;;7.95;;
56299;SDS011;42209;6.376;-10.782;2023-07-08T09:34:49;11.35;;;9.00;;
56299;SDS011;42209;6.376;-10.782;2023-07-08T09:37:25;10.60;;;9.38;;
56299;SDS011;42209;6.376;-10.782;2023-07-08T09:39:59;9.73;;;8.77;;
56299;SDS011;42209;6.376;-10.782;2023-07-08T09:42:32;10.73;;;8.85;;
56299;SDS011;42209;6.376;-10.782;2023-07-08T09:45:08;8.70;;;7.80;;
56299;SDS011;42209;6.376;-10.782;2023-07-08T09:47:42;10.45;;;7.90;;
56299;SDS011;42209;6.376;-10.782;2023-07-08T09:50:22;9.05;;;8.15;;
56299;SDS011;42209;6.376;-10.782;2023-07-08T09:52:53;8.32;;;7.60;;
56299;SDS011;42209;6.376;-10.782;2023-07-08T09:55:26;7.85;;;7.05;;
56299;SDS011;42209;6.376;-10.782;2023-07-08T09:57:54;8.30;;;7.22;;
56299;SDS011;42209;6.376;-10.782;2023-07-08T10:00:33;8.32;;;7.53;;
56299;SDS011;42209;6.376;-10.782;2023-07-08T10:03:16;10.23;;;7.80;;
56299;SDS011;42209;6.376;-10.782;2023-07-08T10:05:49;9.52;;;7.75;;
56299;SDS011;42209;6.376;-10.782;2023-07-08T10:08:22;8.02;;;7.25;;
56299;SDS011;42209;6.376;-10.782;2023-07-08T10:13:37;8.18;;;7.10;;
56299;SDS011;42209;6.376;-10.782;2023-07-08T10:19:00;7.47;;;6.47;;
56299;SDS011;42209;6.376;-10.782;2023-07-08T10:21:51;8.82;;;7.00;;
56299;SDS011;42209;6.376;-10.782;2023-07-08T10:24:37;6.82;;;6.18;;
56299;SDS011;42209;6.376;-10.782;2023-07-08T10:30:26;8.30;;;6.35;;
56299;SDS011;42209;6.376;-10.782;2023-07-08T10:33:09;7.72;;;6.38;;
56299;SDS011;42209;6.376;-10.782;2023-07-08T10:41:44;7.00;;;6.30;;
56299;SDS011;42209;6.376;-10.782;2023-07-08T10:44:21;8.15;;;6.57;;
56299;SDS011;42209;6.376;-10.782;2023-07-08T10:47:03;7.60;;;6.80;;
56299;SDS011;42209;6.376;-10.782;2023-07-08T10:49:56;6.47;;;5.85;;
56299;SDS011;42209;6.376;-10.782;2023-07-08T10:53:03;6.30;;;5.70;;
56299;SDS011;42209;6.376;-10.782;2023-07-08T11:01:00;10.07;;;8.30;;
56299;SDS011;42209;6.376;-10.782;2023-07-08T11:06:26;7.40;;;6.65;;
56299;SDS011;42209;6.376;-10.782;2023-07-08T11:09:13;8.10;;;7.45;;
56299;SDS011;42209;6.376;-10.782;2023-07-08T11:11:54;8.68;;;7.53;;
56299;SDS011;42209;6.376;-10.782;2023-07-08T11:14:47;7.75;;;6.90;;
56299;SDS011;42209;6.376;-10.782;2023-07-08T11:17:26;6.38;;;5.80;;
56299;SDS011;42209;6.376;-10.782;2023-07-08T11:20:10;8.18;;;7.38;;
56299;SDS011;42209;6.376;-10.782;2023-07-08T11:22:58;7.00;;;6.30;;
56299;SDS011;42209;6.376;-10.782;2023-07-08T11:25:32;7.13;;;6.43;;
56299;SDS011;42209;6.376;-10.782;2023-07-08T11:28:03;7.00;;;6.30;;
56299;SDS011;42209;6.376;-10.782;2023-07-08T11:30:36;6.43;;;5.20;;
56299;SDS011;42209;6.376;-10.782;2023-07-08T11:33:08;7.05;;;6.35;;
56299;SDS011;42209;6.376;-10.782;2023-07-08T11:38:15;6.40;;;5.82;;
56299;SDS011;42209;6.376;-10.782;2023-07-08T11:40:56;6.45;;;5.80;;
56299;SDS011;42209;6.376;-10.782;2023-07-08T11:43:35;7.18;;;6.05;;
56299;SDS011;42209;6.376;-10.782;2023-07-08T11:46:24;6.63;;;6.03;;
56299;SDS011;42209;6.376;-10.782;2023-07-08T11:49:15;6.25;;;5.65;;
56299;SDS011;42209;6.376;-10.782;2023-07-08T11:51:45;7.03;;;6.32;;
56299;SDS011;42209;6.376;-10.782;2023-07-08T11:59:33;6.18;;;5.65;;
56299;SDS011;42209;6.376;-10.782;2023-07-08T12:02:18;6.70;;;5.97;;
56299;SDS011;42209;6.376;-10.782;2023-07-08T12:05:02;6.80;;;5.68;;
56299;SDS011;42209;6.376;-10.782;2023-07-08T12:07:41;6.70;;;6.00;;
56299;SDS011;42209;6.376;-10.782;2023-07-08T12:10:18;5.85;;;5.43;;
56299;SDS011;42209;6.376;-10.782;2023-07-08T12:12:55;7.10;;;6.47;;
56299;SDS011;42209;6.376;-10.782;2023-07-08T12:15:30;6.47;;;5.93;;
56299;SDS011;42209;6.376;-10.782;2023-07-08T12:18:16;6.32;;;5.80;;
56299;SDS011;42209;6.376;-10.782;2023-07-08T12:20:54;6.80;;;6.20;;
56299;SDS011;42209;6.376;-10.782;2023-07-08T12:23:25;5.95;;;5.45;;
56299;SDS011;42209;6.376;-10.782;2023-07-08T12:25:56;5.97;;;5.38;;
56299;SDS011;42209;6.376;-10.782;2023-07-08T12:28:25;5.72;;;5.22;;
56299;SDS011;42209;6.376;-10.782;2023-07-08T12:30:54;5.47;;;4.95;;
56299;SDS011;42209;6.376;-10.782;2023-07-08T12:33:28;5.13;;;4.53;;
56299;SDS011;42209;6.376;-10.782;2023-07-08T12:36:02;5.43;;;4.93;;
56299;SDS011;42209;6.376;-10.782;2023-07-08T12:38:32;4.85;;;4.43;;
56299;SDS011;42209;6.376;-10.782;2023-07-08T12:41:07;5.25;;;4.75;;
56299;SDS011;42209;6.376;-10.782;2023-07-08T12:43:39;4.97;;;4.57;;
56299;SDS011;42209;6.376;-10.782;2023-07-08T12:46:09;5.05;;;4.57;;
56299;SDS011;42209;6.376;-10.782;2023-07-08T12:48:39;4.70;;;4.30;;
56299;SDS011;42209;6.376;-10.782;2023-07-08T12:51:11;5.80;;;5.20;;
56299;SDS011;42209;6.376;-10.782;2023-07-08T12:53:42;5.10;;;4.70;;
56299;SDS011;42209;6.376;-10.782;2023-07-08T12:56:12;5.68;;;5.13;;
56299;SDS011;42209;6.376;-10.782;2023-07-08T12:58:42;5.97;;;5.47;;
56299;SDS011;42209;6.376;-10.782;2023-07-08T13:01:15;6.18;;;5.68;;
56299;SDS011;42209;6.376;-10.782;2023-07-08T13:03:52;5.30;;;4.80;;
56299;SDS011;42209;6.376;-10.782;2023-07-08T13:06:26;5.65;;;5.13;;
56299;SDS011;42209;6.376;-10.782;2023-07-08T13:09:07;5.45;;;5.00;;
56299;SDS011;42209;6.376;-10.782;2023-07-08T13:11:56;5.57;;;5.07;;
56299;SDS011;42209;6.376;-10.782;2023-07-08T13:14:25;4.70;;;4.30;;
56299;SDS011;42209;6.376;-10.782;2023-07-08T13:16:55;4.97;;;4.47;;
56299;SDS011;42209;6.376;-10.782;2023-07-08T13:19:24;4.82;;;4.43;;
56299;SDS011;42209;6.376;-10.782;2023-07-08T13:21:52;5.18;;;4.10;;
56299;SDS011;42209;6.376;-10.782;2023-07-08T13:26:49;3.92;;;3.63;;
56299;SDS011;42209;6.376;-10.782;2023-07-08T13:29:18;4.85;;;4.45;;
56299;SDS011;42209;6.376;-10.782;2023-07-08T13:34:17;5.18;;;4.70;;
56299;SDS011;42209;6.376;-10.782;2023-07-08T13:36:49;4.72;;;4.28;;
56299;SDS011;42209;6.376;-10.782;2023-07-08T13:39:26;4.68;;;4.28;;
56299;SDS011;42209;6.376;-10.782;2023-07-08T13:41:59;4.07;;;3.75;;
56299;SDS011;42209;6.376;-10.782;2023-07-08T13:44:28;4.93;;;4.30;;
56299;SDS011;42209;6.376;-10.782;2023-07-08T13:46:58;5.18;;;4.78;;
56299;SDS011;42209;6.376;-10.782;2023-07-08T13:49:32;4.65;;;4.25;;
56299;SDS011;42209;6.376;-10.782;2023-07-08T13:52:15;5.10;;;4.63;;
56299;SDS011;42209;6.376;-10.782;2023-07-08T13:54:52;4.25;;;3.85;;
56299;SDS011;42209;6.376;-10.782;2023-07-08T13:57:43;4.35;;;3.10;;
56299;SDS011;42209;6.376;-10.782;2023-07-08T14:00:12;4.90;;;4.40;;
56299;SDS011;42209;6.376;-10.782;2023-07-08T14:02:43;4.03;;;3.55;;
56299;SDS011;42209;6.376;-10.782;2023-07-08T14:05:12;4.47;;;3.70;;
56299;SDS011;42209;6.376;-10.782;2023-07-08T14:07:41;4.03;;;3.70;;
56299;SDS011;42209;6.376;-10.782;2023-07-08T14:10:13;4.10;;;3.70;;
56299;SDS011;42209;6.376;-10.782;2023-07-08T14:12:42;4.22;;;3.92;;
56299;SDS011;42209;6.376;-10.782;2023-07-08T14:15:10;3.75;;;2.92;;
56299;SDS011;42209;6.376;-10.782;2023-07-08T14:17:39;4.40;;;4.00;;
56299;SDS011;42209;6.376;-10.782;2023-07-08T14:20:09;4.53;;;4.13;;
56299;SDS011;42209;6.376;-10.782;2023-07-08T14:22:42;3.65;;;3.35;;
56299;SDS011;42209;6.376;-10.782;2023-07-08T14:25:13;4.35;;;4.03;;
56299;SDS011;42209;6.376;-10.782;2023-07-08T14:27:44;4.18;;;3.88;;
56299;SDS011;42209;6.376;-10.782;2023-07-08T14:32:41;3.88;;;3.58;;
56299;SDS011;42209;6.376;-10.782;2023-07-08T14:37:44;3.90;;;3.60;;
56299;SDS011;42209;6.376;-10.782;2023-07-08T14:43:01;4.18;;;3.88;;
56299;SDS011;42209;6.376;-10.782;2023-07-08T14:45:41;3.58;;;3.28;;
56299;SDS011;42209;6.376;-10.782;2023-07-08T14:48:12;3.47;;;3.25;;
56299;SDS011;42209;6.376;-10.782;2023-07-08T14:50:41;4.35;;;3.95;;
56299;SDS011;42209;6.376;-10.782;2023-07-08T14:53:12;3.80;;;3.50;;
56299;SDS011;42209;6.376;-10.782;2023-07-08T14:55:42;5.70;;;3.90;;
56299;SDS011;42209;6.376;-10.782;2023-07-08T14:58:17;4.03;;;3.72;;
56299;SDS011;42209;6.376;-10.782;2023-07-08T15:00:57;4.97;;;4.57;;
56299;SDS011;42209;6.376;-10.782;2023-07-08T15:03:27;4.38;;;3.97;;
56299;SDS011;42209;6.376;-10.782;2023-07-08T15:05:56;3.40;;;3.13;;
56299;SDS011;42209;6.376;-10.782;2023-07-08T15:08:24;3.67;;;3.38;;
56299;SDS011;42209;6.376;-10.782;2023-07-08T15:10:52;3.50;;;3.13;;
56299;SDS011;42209;6.376;-10.782;2023-07-08T15:13:29;3.50;;;3.20;;
56299;SDS011;42209;6.376;-10.782;2023-07-08T15:15:58;6.82;;;3.53;;
56299;SDS011;42209;6.376;-10.782;2023-07-08T15:20:55;4.07;;;3.38;;
56299;SDS011;42209;6.376;-10.782;2023-07-08T15:23:23;3.35;;;3.05;;
56299;SDS011;42209;6.376;-10.782;2023-07-08T15:25:55;4.10;;;3.35;;
56299;SDS011;42209;6.376;-10.782;2023-07-08T15:31:16;3.78;;;3.28;;
56299;SDS011;42209;6.376;-10.782;2023-07-08T15:33:47;3.80;;;3.50;;
56299;SDS011;42209;6.376;-10.782;2023-07-08T15:36:16;3.30;;;3.08;;
56299;SDS011;42209;6.376;-10.782;2023-07-08T15:41:17;3.53;;;3.15;;
56299;SDS011;42209;6.376;-10.782;2023-07-08T15:43:54;3.63;;;3.17;;
56299;SDS011;42209;6.376;-10.782;2023-07-08T15:46:26;3.85;;;3.50;;
56299;SDS011;42209;6.376;-10.782;2023-07-08T15:49:08;3.33;;;3.03;;
56299;SDS011;42209;6.376;-10.782;2023-07-08T15:51:45;3.10;;;2.90;;
56299;SDS011;42209;6.376;-10.782;2023-07-08T15:54:17;3.45;;;2.97;;
56299;SDS011;42209;6.376;-10.782;2023-07-08T15:56:50;3.30;;;3.00;;
56299;SDS011;42209;6.376;-10.782;2023-07-08T15:59:23;3.45;;;3.15;;
56299;SDS011;42209;6.376;-10.782;2023-07-08T16:01:54;3.75;;;3.20;;
56299;SDS011;42209;6.376;-10.782;2023-07-08T16:04:33;3.95;;;3.53;;
56299;SDS011;42209;6.376;-10.782;2023-07-08T16:07:11;5.03;;;3.42;;
56299;SDS011;42209;6.376;-10.782;2023-07-08T16:12:08;4.32;;;3.53;;
56299;SDS011;42209;6.376;-10.782;2023-07-08T16:14:46;3.85;;;3.35;;
56299;SDS011;42209;6.376;-10.782;2023-07-08T16:17:15;3.95;;;3.65;;
56299;SDS011;42209;6.376;-10.782;2023-07-08T16:19:43;4.10;;;3.78;;
56299;SDS011;42209;6.376;-10.782;2023-07-08T16:22:14;4.38;;;3.97;;
56299;SDS011;42209;6.376;-10.782;2023-07-08T16:24:45;4.68;;;4.05;;
56299;SDS011;42209;6.376;-10.782;2023-07-08T16:27:15;4.03;;;3.63;;
56299;SDS011;42209;6.376;-10.782;2023-07-08T16:29:52;4.03;;;3.70;;
56299;SDS011;42209;6.376;-10.782;2023-07-08T16:32:21;4.25;;;3.95;;
56299;SDS011;42209;6.376;-10.782;2023-07-08T16:34:57;4.38;;;3.92;;
56299;SDS011;42209;6.376;-10.782;2023-07-08T16:37:29;3.97;;;3.15;;
56299;SDS011;42209;6.376;-10.782;2023-07-08T16:40:03;4.65;;;3.78;;
56299;SDS011;42209;6.376;-10.782;2023-07-08T16:42:33;4.22;;;3.83;;
56299;SDS011;42209;6.376;-10.782;2023-07-08T16:45:01;5.50;;;4.55;;
56299;SDS011;42209;6.376;-10.782;2023-07-08T16:47:39;5.57;;;4.10;;
56299;SDS011;42209;6.376;-10.782;2023-07-08T16:55:14;4.50;;;4.10;;
56299;SDS011;42209;6.376;-10.782;2023-07-08T16:57:46;5.65;;;4.25;;
56299;SDS011;42209;6.376;-10.782;2023-07-08T17:00:19;5.70;;;4.20;;
56299;SDS011;42209;6.376;-10.782;2023-07-08T17:02:48;4.43;;;3.72;;
56299;SDS011;42209;6.376;-10.782;2023-07-08T17:08:04;4.93;;;4.28;;
56299;SDS011;42209;6.376;-10.782;2023-07-08T17:10:33;5.20;;;4.55;;
56299;SDS011;42209;6.376;-10.782;2023-07-08T17:13:01;6.05;;;5.05;;
56299;SDS011;42209;6.376;-10.782;2023-07-08T17:15:30;4.63;;;4.13;;
56299;SDS011;42209;6.376;-10.782;2023-07-08T17:18:01;4.82;;;4.35;;
56299;SDS011;42209;6.376;-10.782;2023-07-08T17:20:35;4.57;;;3.88;;